Kezdőlap
METAR-TAF:

METAR-TAF

Repülőterek :

Franklin megye, Vermont, Amerikai Egyesült Államok

földrajzi szélesség: 44-56-25N, földrajzi hosszúság: 073-05-51W, magasság: 69 m

Jelenlegi meteorológiai megfigyelések

A jelentés 12 perccel ezelõtt készült, 22:36 UTC
Kelet-északkeleti szél 3 kt
Hőmérséklet -10°C
Páratartalom 79%
Légköri nyomás 1016 hPa
Látótávolság: 4.8 km
Szórványos felhőzet 1300 lábon
Szakadozott felhőzet 1900 lábon
Borult 2800 lábon
enyhe havazás

METAR: KFSO 182236Z AUTO 07003KT 3SM -SN SCT013 BKN019 OVC028 M10/M13 A3000 RMK AO2 T11051133

Idő: 17:48 (22:48 UTC)


TAF: hiányzik

Meteorológiai megfigyelések és előrejelzések több, mint 4000 repülőtéren (METAR és TAF jelentéseket).

A térképen piros és sárga pontok jelzik az elérhető meteorológiai állomásokat.

Mozgassa az egeret a pont fölött, hogy megjelenjen az állomás neve.

Azután kattintson az időjárási megfigyelések és előrejelzések megtekintéséhez.

A térkép megváltoztatása: kattintson a fekete keresztel jelölt zöld gombra ráközelítéshez, a vonallal jelölt zöld gombra távolításhoz, vagy a zöld nyilakra a szomszédos térképek eléréséhez.


METAR-TAF: